createdAt,value
2023-01-17T00:00:03.919Z,73.18
2023-01-17T00:02:35.992Z,73.57
2023-01-17T00:05:28.168Z,73.38
2023-01-17T00:08:17.555Z,73.41
2023-01-17T00:10:49.504Z,73.53
2023-01-17T00:13:21.384Z,73.29
2023-01-17T00:15:53.519Z,73.75
2023-01-17T00:18:25.396Z,73.64
2023-01-17T00:21:26.691Z,73.75
2023-01-17T00:24:16.145Z,73.68
2023-01-17T00:27:02.188Z,73.71
2023-01-17T00:29:32.845Z,73.63
2023-01-17T00:32:03.803Z,73.73
2023-01-17T00:34:34.516Z,74.09
2023-01-17T00:37:05.305Z,73.92
2023-01-17T00:39:36.061Z,73.72
2023-01-17T00:42:06.871Z,73.76
2023-01-17T00:44:56.086Z,73.91
2023-01-17T00:47:45.549Z,73.91
2023-01-17T00:50:42.069Z,73.87
2023-01-17T00:53:31.813Z,73.98
2023-01-17T00:56:22.741Z,73.92
2023-01-17T00:59:14.389Z,73.92
2023-01-17T01:02:03.973Z,73.84
2023-01-17T01:04:53.651Z,74.15
2023-01-17T01:07:43.327Z,74.13
2023-01-17T01:10:37.200Z,74.18
2023-01-17T01:13:26.531Z,74.18
2023-01-17T01:16:17.858Z,74.21
2023-01-17T01:19:05.991Z,74.29
2023-01-17T01:21:55.661Z,74.21
2023-01-17T01:24:45.398Z,74.31
2023-01-17T01:27:34.991Z,74.64
2023-01-17T01:30:32.279Z,74.39
2023-01-17T01:33:21.115Z,74.63
2023-01-17T01:35:55.098Z,74.61
2023-01-17T01:38:27.867Z,74.62
2023-01-17T01:40:59.726Z,74.61
2023-01-17T01:43:46.865Z,74.69
2023-01-17T01:46:22.003Z,74.74
2023-01-17T01:48:57.859Z,74.50
2023-01-17T01:51:34.814Z,74.80
2023-01-17T01:54:12.796Z,74.54
2023-01-17T01:56:46.449Z,74.56
2023-01-17T01:59:21.384Z,74.54
2023-01-17T02:01:57.056Z,74.40
2023-01-17T02:04:30.554Z,74.45
2023-01-17T02:07:08.453Z,74.72
2023-01-17T02:09:40.588Z,74.62
2023-01-17T02:12:13.471Z,74.69
2023-01-17T02:14:45.373Z,74.72
2023-01-17T02:17:31.243Z,74.85
2023-01-17T02:20:32.245Z,74.84
2023-01-17T02:23:34.371Z,75.44
2023-01-17T02:26:46.063Z,75.26
2023-01-17T02:29:58.615Z,75.17
2023-01-17T02:32:39.501Z,75.26
2023-01-17T02:35:21.676Z,75.36
2023-01-17T02:38:04.392Z,75.31
2023-01-17T02:40:40.806Z,75.34
2023-01-17T02:43:15.876Z,75.61
2023-01-17T02:45:47.719Z,75.46
2023-01-17T02:48:25.844Z,75.52
2023-01-17T02:51:12.818Z,75.77
2023-01-17T02:53:54.123Z,75.60
2023-01-17T02:56:41.731Z,75.68
2023-01-17T02:59:26.494Z,75.54
2023-01-17T03:02:08.577Z,75.63
2023-01-17T03:04:48.824Z,75.38
2023-01-17T03:07:25.569Z,75.35
2023-01-17T03:10:02.023Z,75.21
2023-01-17T03:12:38.782Z,75.28
2023-01-17T03:15:16.133Z,75.26
2023-01-17T03:17:51.539Z,75.23
2023-01-17T03:20:27.868Z,75.36
2023-01-17T03:22:59.699Z,75.38
2023-01-17T03:25:32.343Z,75.49
2023-01-17T03:28:04.168Z,75.34
2023-01-17T03:30:36.049Z,75.29
2023-01-17T03:33:07.956Z,75.33
2023-01-17T03:35:39.822Z,75.34
2023-01-17T03:38:11.695Z,75.35
2023-01-17T03:40:43.887Z,75.33
2023-01-17T03:43:15.806Z,75.26
2023-01-17T03:45:49.781Z,75.30
2023-01-17T03:48:22.368Z,75.31
2023-01-17T03:50:54.495Z,75.22
2023-01-17T03:53:26.700Z,75.12
2023-01-17T03:55:58.536Z,75.13
2023-01-17T03:58:30.370Z,75.11
2023-01-17T04:01:02.420Z,75.03
2023-01-17T04:03:34.452Z,75.04
2023-01-17T04:06:06.875Z,74.93
2023-01-17T04:08:38.748Z,74.80
2023-01-17T04:11:10.710Z,74.55
2023-01-17T04:13:42.586Z,74.66
2023-01-17T04:16:18.286Z,74.50
2023-01-17T04:18:50.190Z,74.53
2023-01-17T04:21:22.084Z,74.53
2023-01-17T04:23:53.921Z,74.28
2023-01-17T04:26:25.791Z,74.25
2023-01-17T04:28:57.583Z,74.22
2023-01-17T04:31:29.742Z,74.00
2023-01-17T04:34:01.885Z,74.00
2023-01-17T04:36:34.182Z,73.82
2023-01-17T04:39:06.680Z,73.89
2023-01-17T04:41:39.096Z,73.77
2023-01-17T04:44:10.964Z,73.53
2023-01-17T04:46:42.914Z,73.41
2023-01-17T04:49:14.762Z,73.37
2023-01-17T04:51:46.683Z,73.35
2023-01-17T04:54:18.624Z,73.32
2023-01-17T04:56:50.495Z,73.18
2023-01-17T04:59:22.390Z,72.93
2023-01-17T05:01:54.728Z,72.91
2023-01-17T05:04:26.780Z,72.89
2023-01-17T05:06:58.646Z,72.85
2023-01-17T05:09:30.486Z,72.58
2023-01-17T05:12:02.379Z,72.64
2023-01-17T05:14:34.606Z,72.67
2023-01-17T05:17:06.553Z,72.48
2023-01-17T05:19:38.679Z,72.46
2023-01-17T05:22:15.961Z,72.47
2023-01-17T05:24:49.162Z,72.18
2023-01-17T05:27:21.022Z,72.53
2023-01-17T05:29:53.439Z,72.73
2023-01-17T05:32:25.313Z,73.07
2023-01-17T05:34:57.118Z,72.98
2023-01-17T05:37:28.986Z,72.88
2023-01-17T05:40:00.925Z,72.82
2023-01-17T05:42:32.863Z,72.76
2023-01-17T05:45:04.808Z,72.64
2023-01-17T05:47:36.673Z,72.63
2023-01-17T05:50:18.473Z,72.62
2023-01-17T05:52:54.804Z,72.57
2023-01-17T05:55:27.568Z,72.46
2023-01-17T05:57:59.873Z,72.49
2023-01-17T06:00:32.883Z,72.23
2023-01-17T06:03:05.402Z,72.38
2023-01-17T06:05:37.442Z,72.22
2023-01-17T06:08:11.349Z,72.31
2023-01-17T06:10:43.211Z,72.29
2023-01-17T06:13:20.919Z,72.15
2023-01-17T06:15:52.796Z,72.12
2023-01-17T06:18:24.784Z,71.93
2023-01-17T06:20:56.815Z,71.84
2023-01-17T06:23:29.423Z,71.95
2023-01-17T06:26:05.020Z,71.78
2023-01-17T06:28:37.013Z,71.61
2023-01-17T06:31:12.209Z,71.75
2023-01-17T06:33:44.417Z,71.72
2023-01-17T06:36:16.355Z,71.20
2023-01-17T06:38:50.662Z,71.58
2023-01-17T06:41:23.328Z,71.28
2023-01-17T06:43:56.993Z,71.38
2023-01-17T06:46:28.952Z,71.36
2023-01-17T06:49:00.968Z,71.44
2023-01-17T06:51:32.828Z,71.33
2023-01-17T06:54:04.769Z,71.48
2023-01-17T06:56:36.768Z,71.43
2023-01-17T06:59:10.217Z,71.49
2023-01-17T07:01:42.598Z,71.33
2023-01-17T07:04:14.533Z,71.17
2023-01-17T07:06:46.399Z,71.23
2023-01-17T07:09:18.620Z,71.06
2023-01-17T07:11:51.948Z,71.24
2023-01-17T07:14:24.019Z,71.15
2023-01-17T07:16:56.067Z,71.08
2023-01-17T07:19:28.111Z,70.59
2023-01-17T07:21:59.961Z,70.93
2023-01-17T07:24:32.904Z,70.83
2023-01-17T07:27:04.887Z,71.09
2023-01-17T07:29:36.786Z,71.19
2023-01-17T07:32:09.008Z,70.98
2023-01-17T07:34:40.983Z,71.20
2023-01-17T07:37:15.090Z,71.51
2023-01-17T07:39:47.307Z,71.67
2023-01-17T07:42:19.333Z,71.88
2023-01-17T07:44:51.287Z,72.13
2023-01-17T07:47:24.840Z,72.16
2023-01-17T07:49:56.806Z,72.25
2023-01-17T07:52:28.790Z,72.23
2023-01-17T07:55:00.757Z,72.19
2023-01-17T07:57:32.920Z,72.21
2023-01-17T08:00:17.295Z,72.16
2023-01-17T08:02:49.893Z,72.18
2023-01-17T08:05:21.888Z,72.20
2023-01-17T08:07:54.382Z,72.24
2023-01-17T08:10:33.219Z,72.20
2023-01-17T08:13:05.259Z,72.06
2023-01-17T08:15:37.152Z,72.08
2023-01-17T08:18:09.135Z,71.92
2023-01-17T08:20:42.668Z,72.05
2023-01-17T08:23:14.763Z,72.00
2023-01-17T08:25:46.608Z,72.03
2023-01-17T08:28:19.855Z,71.82
2023-01-17T08:30:51.840Z,71.83
2023-01-17T08:33:23.726Z,71.76
2023-01-17T08:35:56.031Z,71.65
2023-01-17T08:38:28.026Z,71.45
2023-01-17T08:41:02.858Z,71.41
2023-01-17T08:43:34.750Z,71.50
2023-01-17T08:46:07.156Z,71.48
2023-01-17T08:48:39.078Z,71.39
2023-01-17T08:51:12.045Z,71.28
2023-01-17T08:53:43.991Z,71.41
2023-01-17T08:56:16.168Z,71.30
2023-01-17T08:58:48.083Z,71.00
2023-01-17T09:01:20.563Z,70.81
2023-01-17T09:03:52.729Z,71.03
2023-01-17T09:06:25.323Z,70.76
2023-01-17T09:08:57.278Z,70.80
2023-01-17T09:11:29.333Z,70.73
2023-01-17T09:14:02.097Z,70.65
2023-01-17T09:16:34.689Z,70.36
2023-01-17T09:19:06.590Z,70.41
2023-01-17T09:21:38.764Z,70.35
2023-01-17T09:24:12.559Z,70.29
2023-01-17T09:26:44.590Z,70.44
2023-01-17T09:29:17.976Z,69.95
2023-01-17T09:31:50.071Z,70.05
2023-01-17T09:34:23.694Z,70.12
2023-01-17T09:36:57.108Z,69.92
2023-01-17T09:39:30.923Z,70.04
2023-01-17T09:42:10.072Z,70.07
2023-01-17T09:44:47.195Z,69.62
2023-01-17T09:47:29.734Z,69.24
2023-01-17T09:50:16.346Z,69.55
2023-01-17T09:52:48.711Z,69.09
2023-01-17T09:55:21.246Z,68.97
2023-01-17T10:01:48.518Z,67.96
2023-01-17T10:04:39.269Z,67.95
2023-01-17T10:07:20.766Z,66.96
2023-01-17T10:10:05.255Z,67.13
2023-01-17T10:12:52.014Z,66.82
2023-01-17T10:15:40.277Z,65.77
2023-01-17T10:18:31.120Z,66.32
2023-01-17T10:21:44.227Z,66.69
2023-01-17T10:24:40.011Z,66.05
2023-01-17T10:27:21.522Z,66.46
2023-01-17T10:29:54.479Z,66.14
2023-01-17T10:32:30.802Z,65.97
2023-01-17T10:35:14.197Z,65.10
2023-01-17T10:37:47.808Z,64.80
2023-01-17T10:40:29.241Z,64.54
2023-01-17T10:43:06.202Z,64.82
2023-01-17T10:45:43.735Z,64.44
2023-01-17T10:48:23.237Z,64.61
2023-01-17T10:51:02.636Z,64.33
2023-01-17T10:53:46.875Z,64.27
2023-01-17T10:56:28.099Z,63.51
2023-01-17T10:59:27.441Z,64.60
2023-01-17T11:01:59.907Z,64.19
2023-01-17T11:04:38.083Z,63.69
2023-01-17T11:07:16.282Z,63.33
2023-01-17T11:09:49.904Z,63.22
2023-01-17T11:12:28.144Z,62.96
2023-01-17T11:15:34.521Z,62.64
2023-01-17T11:18:19.945Z,63.72
2023-01-17T11:20:52.052Z,63.20
2023-01-17T11:23:30.857Z,63.21
2023-01-17T11:26:04.832Z,62.94
2023-01-17T11:28:37.996Z,63.69
2023-01-17T11:31:26.684Z,63.70
2023-01-17T11:34:17.545Z,63.33
2023-01-17T11:36:50.327Z,62.57
2023-01-17T11:39:28.409Z,62.98
2023-01-17T11:42:00.432Z,63.19
2023-01-17T11:44:34.225Z,63.06
2023-01-17T11:47:19.421Z,63.48
2023-01-17T11:49:52.177Z,63.20
2023-01-17T11:52:32.909Z,62.70
2023-01-17T11:55:07.118Z,62.93
2023-01-17T11:58:00.116Z,62.53
2023-01-17T12:00:39.037Z,62.21
2023-01-17T12:03:22.263Z,62.55
2023-01-17T12:06:02.923Z,62.67
2023-01-17T12:12:14.923Z,62.71
2023-01-17T12:15:01.104Z,62.23
2023-01-17T12:17:51.689Z,62.50
2023-01-17T12:20:35.590Z,62.48
2023-01-17T12:23:28.929Z,62.25
2023-01-17T12:26:19.592Z,61.87
2023-01-17T12:29:21.584Z,61.45
2023-01-17T12:32:00.533Z,61.60
2023-01-17T12:34:35.594Z,61.10
2023-01-17T12:37:19.146Z,61.52
2023-01-17T12:39:55.055Z,61.90
2023-01-17T12:42:30.957Z,61.59
2023-01-17T12:45:08.828Z,61.75
2023-01-17T12:47:48.338Z,61.83
2023-01-17T12:50:27.585Z,60.97
2023-01-17T12:53:05.742Z,60.94
2023-01-17T12:55:42.769Z,60.84
2023-01-17T12:58:21.130Z,60.89
2023-01-17T13:01:00.808Z,58.94
2023-01-17T13:03:44.780Z,59.42
2023-01-17T13:06:23.268Z,59.96
2023-01-17T13:09:02.102Z,59.25
2023-01-17T13:11:41.366Z,59.97
2023-01-17T13:14:13.573Z,60.51
2023-01-17T13:16:50.171Z,59.89
2023-01-17T13:19:32.595Z,60.02
2023-01-17T13:22:08.605Z,60.52
2023-01-17T13:24:50.830Z,60.84
2023-01-17T13:28:02.929Z,60.59
2023-01-17T13:31:09.733Z,60.62
2023-01-17T13:34:10.267Z,60.60
2023-01-17T13:36:57.167Z,60.65
2023-01-17T13:39:46.879Z,60.39
2023-01-17T13:42:30.600Z,60.84
2023-01-17T13:45:07.825Z,60.41
2023-01-17T13:47:42.798Z,60.63
2023-01-17T13:50:50.671Z,60.34
2023-01-17T13:53:56.952Z,61.00
2023-01-17T13:56:36.497Z,60.63
2023-01-17T13:59:31.016Z,60.24
2023-01-17T14:02:02.959Z,58.84
2023-01-17T14:05:09.416Z,59.10
2023-01-17T14:07:47.828Z,58.18
2023-01-17T14:10:29.699Z,57.72
2023-01-17T14:13:01.913Z,57.88
2023-01-17T14:15:36.719Z,57.86
2023-01-17T14:18:30.717Z,58.27
2023-01-17T14:21:20.358Z,58.68
2023-01-17T14:23:57.416Z,59.08
2023-01-17T14:26:37.796Z,59.19
2023-01-17T14:29:44.434Z,58.93
2023-01-17T14:32:18.728Z,58.90
2023-01-17T14:34:53.330Z,58.94
2023-01-17T14:37:34.373Z,59.00
2023-01-17T14:40:19.092Z,59.38
2023-01-17T14:43:02.731Z,59.51
2023-01-17T14:45:36.957Z,59.50
2023-01-17T14:48:16.667Z,59.58
2023-01-17T14:50:50.217Z,59.55
2023-01-17T14:53:28.263Z,59.23
2023-01-17T14:56:03.054Z,59.17
2023-01-17T14:58:36.639Z,59.11
2023-01-17T15:01:13.484Z,59.43
2023-01-17T15:03:48.205Z,59.52
2023-01-17T15:06:22.829Z,59.69
2023-01-17T15:08:55.106Z,59.82
2023-01-17T15:11:29.839Z,59.68
2023-01-17T15:14:06.019Z,59.91
2023-01-17T15:16:41.202Z,59.89
2023-01-17T15:19:15.533Z,60.20
2023-01-17T15:21:50.661Z,60.00
2023-01-17T15:24:25.287Z,60.05
2023-01-17T15:26:57.453Z,59.95
2023-01-17T15:29:33.424Z,59.78
2023-01-17T15:32:07.086Z,60.20
2023-01-17T15:34:40.776Z,60.17
2023-01-17T15:37:28.564Z,60.21
2023-01-17T15:40:18.829Z,60.31
2023-01-17T15:43:01.082Z,60.27
2023-01-17T15:45:36.357Z,60.42
2023-01-17T15:48:33.305Z,60.29
2023-01-17T15:51:05.228Z,60.54
2023-01-17T15:53:40.173Z,60.43
2023-01-17T15:56:31.046Z,60.46
2023-01-17T15:59:29.930Z,60.62
2023-01-17T16:02:02.029Z,60.41
2023-01-17T16:04:37.665Z,60.59
2023-01-17T16:07:19.666Z,60.52
2023-01-17T16:09:52.475Z,60.29
2023-01-17T16:12:24.367Z,60.45
2023-01-17T16:15:11.139Z,60.55
2023-01-17T16:17:47.384Z,60.43
2023-01-17T16:20:30.420Z,60.38
2023-01-17T16:23:02.784Z,60.45
2023-01-17T16:25:34.645Z,60.38
2023-01-17T16:28:08.424Z,60.49
2023-01-17T16:30:40.665Z,60.52
2023-01-17T16:33:14.098Z,60.54
2023-01-17T16:35:46.064Z,60.62
2023-01-17T16:38:19.923Z,60.58
2023-01-17T16:40:51.943Z,60.67
2023-01-17T16:43:24.197Z,60.60
2023-01-17T16:45:56.101Z,60.56
2023-01-17T16:48:28.197Z,60.42
2023-01-17T16:51:00.181Z,60.42
2023-01-17T16:53:31.973Z,60.57
2023-01-17T16:56:13.742Z,60.67
2023-01-17T16:58:45.749Z,60.67
2023-01-17T17:01:21.420Z,60.66
2023-01-17T17:03:53.417Z,60.76
2023-01-17T17:06:25.304Z,60.84
2023-01-17T17:08:57.214Z,60.94
2023-01-17T17:11:29.178Z,60.92
2023-01-17T17:14:01.072Z,61.36
2023-01-17T17:16:34.142Z,61.25
2023-01-17T17:19:07.977Z,61.19
2023-01-17T17:21:39.883Z,61.15
2023-01-17T17:24:15.196Z,61.25
2023-01-17T17:26:47.403Z,61.37
2023-01-17T17:29:19.334Z,61.18
2023-01-17T17:31:52.040Z,61.20
2023-01-17T17:34:26.003Z,61.01
2023-01-17T17:36:57.878Z,61.27
2023-01-17T17:39:30.248Z,61.40
2023-01-17T17:42:02.446Z,61.25
2023-01-17T17:44:34.770Z,61.31
2023-01-17T17:47:06.813Z,61.36
2023-01-17T17:49:38.707Z,61.36
2023-01-17T17:52:11.204Z,61.37
2023-01-17T17:54:43.969Z,61.47
2023-01-17T17:57:16.056Z,61.30
2023-01-17T17:59:47.937Z,61.43
2023-01-17T18:02:19.832Z,61.64
2023-01-17T18:04:52.480Z,61.81
2023-01-17T18:07:24.428Z,62.01
2023-01-17T18:09:56.304Z,62.23
2023-01-17T18:12:28.291Z,62.32
2023-01-17T18:15:00.695Z,62.40
2023-01-17T18:17:32.993Z,62.49
2023-01-17T18:20:07.627Z,62.64
2023-01-17T18:22:40.115Z,62.62
2023-01-17T18:25:12.801Z,62.59
2023-01-17T18:27:46.704Z,62.72
2023-01-17T18:30:28.447Z,62.80
2023-01-17T18:33:00.336Z,62.75
2023-01-17T18:35:32.358Z,62.86
2023-01-17T18:38:04.415Z,62.87
2023-01-17T18:40:38.223Z,62.97
2023-01-17T18:43:10.300Z,62.94
2023-01-17T18:45:42.323Z,62.97
2023-01-17T18:48:14.231Z,63.20
2023-01-17T18:50:55.209Z,63.12
2023-01-17T18:53:27.475Z,63.27
2023-01-17T18:56:02.428Z,63.40
2023-01-17T18:58:39.185Z,63.37
2023-01-17T19:01:13.913Z,63.58
2023-01-17T19:03:47.777Z,63.79
2023-01-17T19:06:22.210Z,63.85
2023-01-17T19:08:54.200Z,63.81
2023-01-17T19:11:27.634Z,63.90
2023-01-17T19:13:59.622Z,63.92
2023-01-17T19:16:34.833Z,64.05
2023-01-17T19:19:09.437Z,64.07
2023-01-17T19:21:41.327Z,64.14
2023-01-17T19:24:14.362Z,64.04
2023-01-17T19:26:47.828Z,64.12
2023-01-17T19:29:19.812Z,64.30
2023-01-17T19:31:51.818Z,64.32
2023-01-17T19:34:23.778Z,64.36
2023-01-17T19:36:56.431Z,64.44
2023-01-17T19:39:30.614Z,64.38
2023-01-17T19:42:02.473Z,64.48
2023-01-17T19:44:34.620Z,64.51
2023-01-17T19:47:06.564Z,64.47
2023-01-17T19:49:40.301Z,64.66
2023-01-17T19:52:12.917Z,64.75
2023-01-17T19:54:44.956Z,65.28
2023-01-17T19:57:17.980Z,65.29
2023-01-17T19:59:49.960Z,65.45
2023-01-17T20:02:22.108Z,65.62
2023-01-17T20:04:54.229Z,65.87
2023-01-17T20:07:26.311Z,65.96
2023-01-17T20:09:58.707Z,65.98
2023-01-17T20:12:31.510Z,66.33
2023-01-17T20:15:03.902Z,66.58
2023-01-17T20:17:36.056Z,66.46
2023-01-17T20:20:16.270Z,66.53
2023-01-17T20:22:48.427Z,66.56
2023-01-17T20:25:20.626Z,66.55
2023-01-17T20:27:52.710Z,66.41
2023-01-17T20:30:33.047Z,66.33
2023-01-17T20:33:05.512Z,66.34
2023-01-17T20:35:37.453Z,66.17
2023-01-17T20:38:10.727Z,66.16
2023-01-17T20:40:43.032Z,66.23
2023-01-17T20:43:15.165Z,66.07
2023-01-17T20:45:47.427Z,66.13
2023-01-17T20:48:20.860Z,66.17
2023-01-17T20:50:53.601Z,66.08
2023-01-17T20:53:25.650Z,66.07
2023-01-17T20:55:59.615Z,66.14
2023-01-17T20:58:32.103Z,66.20
2023-01-17T21:01:04.748Z,66.31
2023-01-17T21:03:37.982Z,66.23
2023-01-17T21:10:17.769Z,66.18
2023-01-17T21:12:49.909Z,66.27
2023-01-17T21:15:22.131Z,66.28
2023-01-17T21:17:55.027Z,66.39
2023-01-17T21:20:34.500Z,66.44
2023-01-17T21:23:08.722Z,66.38
2023-01-17T21:25:41.062Z,66.43
2023-01-17T21:28:13.160Z,66.44
2023-01-17T21:30:45.990Z,66.29
2023-01-17T21:33:18.375Z,66.40
2023-01-17T21:35:50.986Z,66.35
2023-01-17T21:38:23.289Z,66.35
2023-01-17T21:40:59.380Z,66.39
2023-01-17T21:43:32.277Z,66.35
2023-01-17T21:46:05.923Z,66.42
2023-01-17T21:48:39.494Z,66.44
2023-01-17T21:51:11.898Z,66.48
2023-01-17T21:53:44.285Z,66.49
2023-01-17T21:56:34.213Z,66.51
2023-01-17T21:59:06.663Z,66.49
2023-01-17T22:01:38.740Z,66.49
2023-01-17T22:04:13.336Z,66.63
2023-01-17T22:06:45.459Z,66.73
2023-01-17T22:09:17.857Z,66.95
2023-01-17T22:11:50.025Z,66.96
2023-01-17T22:14:22.387Z,67.19
2023-01-17T22:16:55.030Z,67.08
2023-01-17T22:19:27.356Z,67.28
2023-01-17T22:21:59.554Z,67.36
2023-01-17T22:24:31.757Z,67.67
2023-01-17T22:27:03.975Z,67.77
2023-01-17T22:29:36.579Z,68.17
2023-01-17T22:32:10.383Z,67.95
2023-01-17T22:34:43.125Z,68.45
2023-01-17T22:37:15.491Z,68.73
2023-01-17T22:39:47.659Z,69.43
2023-01-17T22:42:20.161Z,69.74
2023-01-17T22:44:52.401Z,69.68
2023-01-17T22:47:24.664Z,69.94
2023-01-17T22:49:56.870Z,69.56
2023-01-17T22:52:29.133Z,69.99
2023-01-17T22:55:01.628Z,70.41
2023-01-17T22:57:34.119Z,70.46
2023-01-17T23:00:15.151Z,70.65
2023-01-17T23:02:47.485Z,70.11
2023-01-17T23:05:20.579Z,69.92
2023-01-17T23:07:53.797Z,69.93
2023-01-17T23:10:50.713Z,69.93
2023-01-17T23:13:22.960Z,69.77
2023-01-17T23:16:12.752Z,69.69
2023-01-17T23:19:02.499Z,69.60
2023-01-17T23:21:48.708Z,69.75
2023-01-17T23:24:20.810Z,69.97
2023-01-17T23:27:06.635Z,70.30
2023-01-17T23:29:38.854Z,69.99
2023-01-17T23:32:11.027Z,70.14
2023-01-17T23:34:43.041Z,71.24
2023-01-17T23:37:15.094Z,71.13
2023-01-17T23:39:47.453Z,70.72
2023-01-17T23:42:37.062Z,71.40
2023-01-17T23:45:10.913Z,72.38
2023-01-17T23:47:45.626Z,71.92
2023-01-17T23:50:26.416Z,71.35
2023-01-17T23:52:58.906Z,71.13
2023-01-17T23:55:31.210Z,71.03
2023-01-17T23:58:03.791Z,70.90
